Time;durP1;ratioP1;P1;durP2;ratioP2;P2;SDS_P1;SDS_P2;PMS_P1;PMS_P2;Temp;Humidity;BMP_temperature;BMP_pressure;BME280_temperature;BME280_humidity;BME280_pressure;Samples;Min_cycle;Max_cycle;Signal;HPM_P1;HPM_P2
2022/03/29 00:00:13;;;;;;;20.17;10.63;;;;;;;10.70;100.00;61941.69;5093768;28;20211;-72
2022/03/29 00:02:41;;;;;;;22.33;11.00;;;;;;;10.67;100.00;61946.66;5092866;28;20261;-72
2022/03/29 00:05:08;;;;;;;20.80;11.30;;;;;;;10.70;100.00;61944.78;5093895;28;20245;-72
2022/03/29 00:07:35;;;;;;;29.03;11.20;;;;;;;10.50;100.00;61925.91;5093513;28;20212;-72
2022/03/29 00:10:06;;;;;;;28.23;11.27;;;;;;;10.68;100.00;61945.19;5093762;28;20195;-73
2022/03/29 00:12:34;;;;;;;18.97;10.57;;;;;;;10.59;100.00;61932.97;5093920;28;20203;-72
2022/03/29 00:15:01;;;;;;;24.33;11.23;;;;;;;10.58;100.00;61931.91;5094074;28;20203;-72
2022/03/29 00:20:51;;;;;;;23.10;12.03;;;;;;;10.69;100.00;61948.25;5093595;28;20198;-73
2022/03/29 00:23:18;;;;;;;22.33;11.03;;;;;;;10.55;100.00;61926.16;5093448;28;20223;-72
2022/03/29 00:25:46;;;;;;;19.60;10.33;;;;;;;10.53;100.00;61931.09;5093601;28;20589;-73
2022/03/29 00:28:15;;;;;;;17.73;10.33;;;;;;;10.62;100.00;61938.22;5091934;28;20207;-71
2022/03/29 00:30:42;;;;;;;17.10;10.63;;;;;;;10.63;100.00;61939.28;5091932;28;20254;-72
2022/03/29 00:33:09;;;;;;;22.37;10.87;;;;;;;10.70;100.00;61947.31;5093138;28;20616;-72
2022/03/29 00:35:36;;;;;;;26.07;11.83;;;;;;;10.58;100.00;61933.94;5092953;28;20628;-72
2022/03/29 00:38:04;;;;;;;22.47;10.17;;;;;;;10.54;100.00;61930.19;5092678;28;20203;-72
2022/03/29 00:40:31;;;;;;;21.33;11.23;;;;;;;10.37;100.00;61911.41;5093352;28;20210;-73
2022/03/29 00:43:00;;;;;;;19.00;11.30;;;;;;;10.34;100.00;61908.75;5093002;28;20327;-72
2022/03/29 00:45:27;;;;;;;26.20;11.10;;;;;;;10.42;100.00;61912.22;5092974;28;20210;-71
2022/03/29 00:47:54;;;;;;;18.00;10.20;;;;;;;10.42;100.00;61911.69;5093009;28;20198;-72
2022/03/29 00:50:21;;;;;;;24.67;10.30;;;;;;;10.31;100.00;61903.00;5091941;28;20210;-74
2022/03/29 00:52:49;;;;;;;21.90;11.10;;;;;;;10.23;100.00;61898.97;5092703;28;20662;-71
2022/03/29 00:55:17;;;;;;;22.67;11.87;;;;;;;10.19;100.00;61895.22;5092683;28;20248;-72
2022/03/29 00:57:46;;;;;;;23.97;11.40;;;;;;;10.25;100.00;61896.56;5092895;28;20195;-72
2022/03/29 01:00:16;;;;;;;21.67;11.23;;;;;;;10.06;100.00;61876.22;5092749;28;20499;-72
2022/03/29 01:02:43;;;;;;;21.20;11.20;;;;;;;10.05;100.00;61875.13;5093119;28;20623;-73
2022/03/29 01:05:11;;;;;;;18.77;11.93;;;;;;;10.06;100.00;61881.28;5092887;28;20276;-72
2022/03/29 01:07:38;;;;;;;26.70;11.13;;;;;;;9.97;100.00;61866.56;5093971;28;20278;-71
2022/03/29 01:10:06;;;;;;;24.17;10.60;;;;;;;9.81;100.00;61849.44;5093597;28;20195;-72
2022/03/29 01:12:34;;;;;;;25.43;12.03;;;;;;;9.81;100.00;61849.97;5092800;28;20637;-72
2022/03/29 01:15:04;;;;;;;22.43;13.23;;;;;;;9.91;100.00;61855.06;5092550;28;20192;-73
2022/03/29 01:17:38;;;;;;;25.87;12.53;;;;;;;9.95;100.00;61864.97;5092441;28;20235;-71
2022/03/29 01:20:12;;;;;;;28.10;12.80;;;;;;;9.94;100.00;61861.34;5092182;28;20234;-72
2022/03/29 01:22:42;;;;;;;22.43;11.17;;;;;;;9.90;100.00;61859.06;5092329;28;20224;-72
2022/03/29 01:25:11;;;;;;;22.10;11.27;;;;;;;9.93;100.00;61865.38;5092377;28;20662;-72
2022/03/29 01:27:40;;;;;;;26.90;12.40;;;;;;;9.74;100.00;61844.50;5092528;28;20648;-73
2022/03/29 01:30:09;;;;;;;27.17;12.80;;;;;;;9.32;100.00;61797.53;5092212;28;20310;-72
2022/03/29 01:32:40;;;;;;;20.00;11.87;;;;;;;9.64;100.00;61831.25;5092124;28;20658;-71
2022/03/29 01:35:08;;;;;;;20.70;12.07;;;;;;;9.61;100.00;61828.03;5091370;28;20578;-73
2022/03/29 01:37:36;;;;;;;22.77;12.73;;;;;;;9.58;100.00;61825.34;5092197;28;20196;-71
2022/03/29 01:40:08;;;;;;;27.23;14.03;;;;;;;9.60;100.00;61826.97;5092213;28;20199;-71
2022/03/29 01:42:35;;;;;;;21.10;13.27;;;;;;;9.57;100.00;61823.75;5091857;28;20204;-73
2022/03/29 01:45:02;;;;;;;24.30;13.73;;;;;;;9.51;100.00;61817.88;5091985;28;20296;-71
2022/03/29 01:47:29;;;;;;;25.07;13.50;;;;;;;9.35;100.00;61808.38;5091500;28;20195;-72
2022/03/29 01:49:56;;;;;;;27.47;13.43;;;;;;;9.30;100.00;61801.00;5092146;28;20195;-71
2022/03/29 01:52:23;;;;;;;22.10;13.13;;;;;;;9.35;100.00;61801.28;5092067;28;20281;-71
2022/03/29 01:54:50;;;;;;;26.97;14.20;;;;;;;9.13;100.00;61780.28;5091966;28;20195;-72
2022/03/29 01:57:27;;;;;;;32.20;15.00;;;;;;;9.05;100.00;61766.09;5092713;28;20657;-72
2022/03/29 02:02:38;;;;;;;24.80;14.23;;;;;;;9.03;100.00;61766.50;5092522;28;20203;-70
2022/03/29 02:05:07;;;;;;;35.90;15.83;;;;;;;9.01;100.00;61766.91;5091709;28;20622;-73
2022/03/29 02:07:33;;;;;;;30.33;14.70;;;;;;;8.80;100.00;61744.97;5091854;28;20220;-71
2022/03/29 02:10:01;;;;;;;30.07;14.37;;;;;;;8.58;100.00;61720.91;5091921;28;20206;-71
2022/03/29 02:12:30;;;;;;;30.43;15.40;;;;;;;8.65;100.00;61728.94;5092098;28;20207;-71
2022/03/29 02:14:57;;;;;;;48.37;15.63;;;;;;;8.56;100.00;61716.25;5091622;28;20727;-72
2022/03/29 02:17:23;;;;;;;32.43;15.03;;;;;;;8.64;100.00;61727.34;5091563;28;20200;-71
2022/03/29 02:19:50;;;;;;;29.73;14.73;;;;;;;8.55;100.00;61718.25;5091574;28;20253;-71
2022/03/29 02:22:17;;;;;;;27.70;14.17;;;;;;;8.32;100.00;61696.19;5091823;28;20260;-73
2022/03/29 02:24:44;;;;;;;28.03;14.33;;;;;;;8.35;100.00;61694.88;5091182;28;20782;-71
2022/03/29 02:27:11;;;;;;;34.67;16.60;;;;;;;8.22;100.00;61680.41;5092146;28;20514;-71
2022/03/29 02:29:41;;;;;;;33.63;16.77;;;;;;;8.25;100.00;61688.72;5091550;28;20470;-73
2022/03/29 02:32:08;;;;;;;30.93;15.37;;;;;;;8.18;100.00;61678.69;5091642;28;20253;-71
2022/03/29 02:34:35;;;;;;;32.40;15.77;;;;;;;8.11;100.00;61668.66;5091578;28;20461;-72
2022/03/29 02:37:02;;;;;;;53.63;25.70;;;;;;;8.16;100.00;61676.53;5091899;28;20447;-72
2022/03/29 02:39:29;;;;;;;44.80;21.57;;;;;;;8.25;100.00;61684.19;5091408;28;20445;-72
2022/03/29 02:41:58;;;;;;;97.83;46.20;;;;;;;8.04;100.00;61661.72;5091347;28;20465;-71
2022/03/29 02:44:25;;;;;;;73.77;34.00;;;;;;;7.74;100.00;61629.13;5091503;28;20288;-72
2022/03/29 02:46:53;;;;;;;53.70;22.27;;;;;;;7.66;100.00;61621.66;5091289;28;20446;-73
2022/03/29 02:49:20;;;;;;;47.67;20.73;;;;;;;7.67;100.00;61622.19;5092212;28;20441;-72
2022/03/29 02:51:47;;;;;;;53.47;23.87;;;;;;;7.76;100.00;61633.81;5091255;28;21001;-72
2022/03/29 02:54:14;;;;;;;55.87;26.50;;;;;;;7.81;100.00;61636.63;5091304;28;20456;-71
2022/03/29 02:56:42;;;;;;;53.50;24.60;;;;;;;7.74;100.00;61631.66;5092130;28;20521;-71
2022/03/29 02:59:09;;;;;;;58.43;25.33;;;;;;;7.73;100.00;61633.66;5091635;28;20445;-72
2022/03/29 03:01:36;;;;;;;72.07;32.23;;;;;;;7.79;100.00;61634.47;5094856;28;20964;-71
2022/03/29 03:04:05;;;;;;;59.13;27.53;;;;;;;7.69;100.00;61629.94;5094704;28;20485;-72
2022/03/29 03:06:32;;;;;;;95.13;46.60;;;;;;;7.50;100.00;61604.56;5094616;28;21060;-72
2022/03/29 03:08:59;;;;;;;64.20;29.63;;;;;;;7.43;100.00;61602.16;5094894;28;20491;-72
2022/03/29 03:11:26;;;;;;;36.93;17.33;;;;;;;7.42;100.00;61596.03;5094835;28;20522;-73
2022/03/29 03:13:53;;;;;;;55.43;23.47;;;;;;;7.55;100.00;61609.91;5094765;28;20801;-72
2022/03/29 03:16:20;;;;;;;67.13;29.57;;;;;;;7.51;100.00;61605.09;5094597;28;20465;-73
2022/03/29 03:18:47;;;;;;;110.07;64.37;;;;;;;7.63;100.00;61615.91;5094832;28;20446;-73
2022/03/29 03:21:16;;;;;;;57.90;29.87;;;;;;;7.76;100.00;61631.28;5094361;28;20790;-72
2022/03/29 03:23:43;;;;;;;56.70;26.50;;;;;;;7.58;100.00;61618.19;5094921;28;20473;-72
2022/03/29 03:26:10;;;;;;;80.77;37.90;;;;;;;7.45;100.00;61596.69;5094402;28;20449;-71
2022/03/29 03:28:38;;;;;;;45.10;21.33;;;;;;;7.20;100.00;61572.53;5094547;28;20434;-72
2022/03/29 03:31:06;;;;;;;39.13;19.47;;;;;;;7.18;100.00;61570.41;5094922;28;20538;-71
2022/03/29 03:33:33;;;;;;;30.77;14.00;;;;;;;7.19;100.00;61571.47;5094186;28;20812;-72
2022/03/29 03:36:00;;;;;;;44.20;16.70;;;;;;;7.02;100.00;61555.31;5094129;28;20822;-72
2022/03/29 03:38:28;;;;;;;44.20;17.23;;;;;;;7.08;100.00;61559.72;5094185;28;20506;-70
2022/03/29 03:40:55;;;;;;;37.93;17.03;;;;;;;6.90;100.00;61535.47;5094058;28;20487;-72
2022/03/29 03:43:22;;;;;;;51.73;16.57;;;;;;;6.87;100.00;61537.31;5094095;28;20496;-72
2022/03/29 03:45:50;;;;;;;35.83;15.40;;;;;;;6.84;100.00;61539.19;5093990;28;20434;-72
2022/03/29 03:48:16;;;;;;;32.87;16.93;;;;;;;6.67;100.00;61518.50;5093921;28;20491;-72
2022/03/29 03:50:43;;;;;;;28.57;15.40;;;;;;;6.41;100.00;61485.69;5093885;28;20510;-71
2022/03/29 03:53:11;;;;;;;33.60;17.40;;;;;;;6.38;100.00;61487.56;5093965;28;20442;-71
2022/03/29 03:55:39;;;;;;;29.33;15.93;;;;;;;6.18;100.00;61466.25;5094130;28;20429;-73
2022/03/29 03:58:06;;;;;;;37.60;18.13;;;;;;;6.25;100.00;61471.16;5093774;28;20442;-71
2022/03/29 04:00:34;;;;;;;42.07;19.43;;;;;;;6.19;100.00;61465.31;5094537;28;20441;-72
2022/03/29 04:03:01;;;;;;;59.17;30.77;;;;;;;6.14;100.00;61461.97;5093669;28;20503;-72
2022/03/29 04:05:28;;;;;;;61.03;37.27;;;;;;;6.11;100.00;61456.78;5093768;28;20434;-72
2022/03/29 04:07:55;;;;;;;52.77;27.43;;;;;;;6.16;100.00;61466.63;5093778;28;20461;-70
2022/03/29 04:10:22;;;;;;;59.53;34.57;;;;;;;6.29;100.00;61477.97;5093514;28;20438;-72
2022/03/29 04:12:51;;;;;;;49.00;25.80;;;;;;;6.26;100.00;61472.25;5093884;28;20438;-71
2022/03/29 04:15:19;;;;;;;44.87;23.50;;;;;;;6.31;100.00;61482.63;5093553;28;20429;-72
2022/03/29 04:17:46;;;;;;;48.67;23.87;;;;;;;6.41;100.00;61488.22;5093517;28;20441;-71
2022/03/29 04:20:13;;;;;;;41.57;20.27;;;;;;;6.42;100.00;61489.31;5093615;28;20446;-72
2022/03/29 04:22:41;;;;;;;36.63;17.80;;;;;;;6.52;100.00;61499.97;5092290;28;20434;-70
2022/03/29 04:25:10;;;;;;;45.57;18.67;;;;;;;6.60;100.00;61508.50;5093370;28;20481;-72
2022/03/29 04:27:37;;;;;;;38.50;16.83;;;;;;;6.59;100.00;61507.97;5093694;28;20454;-71
2022/03/29 04:30:06;;;;;;;43.73;17.20;;;;;;;6.61;100.00;61509.56;5093037;28;20466;-71
2022/03/29 04:32:37;;;;;;;40.57;17.80;;;;;;;6.64;100.00;61507.72;5093104;28;20860;-71
2022/03/29 04:35:05;;;;;;;51.37;20.97;;;;;;;6.67;100.00;61510.91;5093102;28;20437;-71
2022/03/29 04:37:32;;;;;;;41.57;18.60;;;;;;;6.04;100.00;61449.28;5092762;28;20445;-70
2022/03/29 04:40:01;;;;;;;49.50;27.73;;;;;;;6.60;100.00;61508.50;5092113;28;20434;-72
2022/03/29 04:42:34;;;;;;;45.53;19.80;;;;;;;5.78;100.00;61417.03;5093053;28;20459;-72
2022/03/29 04:45:01;;;;;;;48.13;18.27;;;;;;;5.92;100.00;61436.50;5092767;28;20579;-71
2022/03/29 04:47:29;;;;;;;61.57;18.57;;;;;;;6.51;100.00;61501.44;5092853;28;20503;-71
2022/03/29 04:49:56;;;;;;;64.37;19.07;;;;;;;6.73;100.00;61522.38;5092555;28;20446;-71
2022/03/29 04:52:27;;;;;;;86.03;20.63;;;;;;;6.97;100.00;61550.50;5095477;28;20442;-73
2022/03/29 04:54:54;;;;;;;66.10;19.70;;;;;;;6.87;100.00;61536.78;5096237;28;20490;-71
2022/03/29 04:57:20;;;;;;;43.87;18.17;;;;;;;6.82;100.00;61535.03;5097315;28;20441;-72
2022/03/29 04:59:47;;;;;;;63.07;24.70;;;;;;;6.83;100.00;61535.56;5096397;28;20475;-72
2022/03/29 05:02:14;;;;;;;73.63;23.73;;;;;;;6.95;100.00;61545.84;5094598;28;20446;-70
2022/03/29 05:04:42;;;;;;;96.70;28.43;;;;;;;7.09;100.00;61562.78;5093042;28;21019;-71
2022/03/29 05:07:09;;;;;;;81.50;28.07;;;;;;;7.13;100.00;61564.53;5093549;28;20540;-71
2022/03/29 05:09:35;;;;;;;105.40;30.77;;;;;;;7.30;100.00;61585.22;5092697;28;20445;-70
2022/03/29 05:12:03;;;;;;;81.00;29.03;;;;;;;6.90;100.00;61545.59;5093189;28;20597;-72
2022/03/29 05:14:29;;;;;;;111.60;31.67;;;;;;;7.45;100.00;61604.28;5092983;28;20507;-71
2022/03/29 05:16:57;;;;;;;95.43;29.50;;;;;;;7.78;100.00;61633.41;5092741;28;20441;-71
2022/03/29 05:19:24;;;;;;;50.47;19.77;;;;;;;7.95;100.00;61654.63;5092560;28;20468;-70
2022/03/29 05:21:52;;;;;;;81.60;24.30;;;;;;;7.90;100.00;61646.75;5092100;28;20438;-72
2022/03/29 05:27:28;;;;;;;98.93;28.47;;;;;;;7.96;100.00;61655.16;5092659;28;20445;-73
2022/03/29 05:29:55;;;;;;;50.93;21.27;;;;;;;8.10;100.00;61670.13;5092262;28;20485;-71
2022/03/29 05:32:22;;;;;;;50.53;21.43;;;;;;;8.33;100.00;61692.22;5092692;28;20445;-72
2022/03/29 05:34:49;;;;;;;69.17;26.57;;;;;;;8.37;100.00;61699.03;5092219;28;20475;-72
2022/03/29 05:37:17;;;;;;;52.40;19.93;;;;;;;8.48;100.00;61708.22;5092049;28;20442;-71
2022/03/29 05:39:44;;;;;;;72.60;23.50;;;;;;;8.65;100.00;61726.41;5091613;28;20454;-73
2022/03/29 05:42:11;;;;;;;49.83;22.60;;;;;;;8.72;100.00;61733.88;5091972;28;20192;-72
2022/03/29 05:44:38;;;;;;;38.80;16.00;;;;;;;8.80;100.00;61742.44;5092108;28;20235;-71
2022/03/29 05:49:51;;;;;;;68.93;17.60;;;;;;;8.65;100.00;61726.41;5092171;28;20931;-71
2022/03/29 05:52:21;;;;;;;51.87;18.00;;;;;;;8.88;100.00;61756.06;5091771;28;20449;-71
2022/03/29 05:54:48;;;;;;;73.07;19.30;;;;;;;9.13;100.00;61777.75;5092122;28;20642;-72
2022/03/29 05:57:15;;;;;;;65.50;20.07;;;;;;;9.41;100.00;61807.16;5091730;28;20719;-71
2022/03/29 05:59:42;;;;;;;50.13;20.90;;;;;;;9.62;100.00;61826.56;5091997;28;20199;-72
2022/03/29 06:02:09;;;;;;;56.87;21.63;;;;;;;10.05;100.00;61875.13;5092277;28;20196;-71
2022/03/29 06:04:37;;;;;;;38.27;17.83;;;;;;;10.29;100.00;61903.41;5092467;28;20223;-71
2022/03/29 06:07:05;;;;;;;48.07;18.23;;;;;;;10.34;100.00;61906.22;5092103;28;20216;-72
2022/03/29 06:09:34;;;;;;;52.33;20.43;;;;;;;10.73;100.00;61945.44;5091838;28;20685;-71
2022/03/29 06:12:01;;;;;;;52.37;21.33;;;;;;;10.59;100.00;61932.97;5092311;28;20200;-71
2022/03/29 06:14:28;;;;;;;35.77;16.63;;;;;;;11.05;100.00;61982.28;5091517;28;20203;-71
2022/03/29 06:16:56;;;;;;;46.33;17.63;;;;;;;11.36;100.00;62014.44;5091812;28;20257;-71
2022/03/29 06:19:23;;;;;;;29.47;16.40;;;;;;;11.39;100.00;62015.09;5091691;28;20195;-71
2022/03/29 06:21:50;;;;;;;35.33;16.80;;;;;;;11.32;100.00;62010.16;5091480;28;20662;-72
2022/03/29 06:24:17;;;;;;;56.70;17.30;;;;;;;11.53;100.00;62033.19;5092114;28;20640;-72
2022/03/29 06:26:45;;;;;;;29.63;14.90;;;;;;;11.73;100.00;62054.13;5091807;28;20200;-71
2022/03/29 06:29:13;;;;;;;37.33;15.37;;;;;;;11.63;100.00;62043.91;5091628;28;20308;-71
2022/03/29 06:31:41;;;;;;;27.53;13.60;;;;;;;11.61;100.00;62041.25;5092465;28;20199;-71
2022/03/29 06:34:08;;;;;;;32.93;14.27;;;;;;;12.08;100.00;62091.13;5093305;28;20663;-71
2022/03/29 06:36:35;;;;;;;35.27;14.63;;;;;;;12.27;100.00;62111.53;5095370;28;20242;-72
2022/03/29 06:39:02;;;;;;;31.83;14.30;;;;;;;12.62;100.00;62151.63;5095069;28;20658;-71
2022/03/29 06:41:30;;;;;;;35.10;13.50;;;;;;;12.42;100.00;62130.72;5095215;28;20248;-73
2022/03/29 06:43:59;;;;;;;47.67;22.97;;;;;;;12.68;100.00;62156.06;5095330;28;20235;-71
2022/03/29 06:46:26;;;;;;;40.67;19.50;;;;;;;12.83;100.00;62168.53;5095679;28;20203;-70
2022/03/29 06:48:56;;;;;;;42.63;15.20;;;;;;;13.17;100.00;62208.16;5095234;28;20593;-71
2022/03/29 06:51:23;;;;;;;28.27;13.40;;;;;;;13.11;100.00;62203.75;5095879;28;20192;-71
2022/03/29 06:53:50;;;;;;;29.87;13.40;;;;;;;13.41;100.00;62233.94;5095077;28;20652;-74
2022/03/29 06:56:17;;;;;;;31.03;13.33;;;;;;;12.81;100.00;62168.94;5095032;28;20206;-71
2022/03/29 06:58:44;;;;;;;32.03;17.90;;;;;;;13.43;100.00;62238.13;5094825;28;20196;-72
2022/03/29 07:01:13;;;;;;;70.40;27.90;;;;;;;13.71;100.00;62265.09;5094875;28;20252;-71
2022/03/29 07:03:40;;;;;;;37.57;16.50;;;;;;;13.84;100.00;62282.19;5094909;28;20662;-72
2022/03/29 07:06:07;;;;;;;30.30;14.27;;;;;;;13.44;100.00;62241.75;5094409;28;20243;-70
2022/03/29 07:08:33;;;;;;;30.90;14.40;;;;;;;13.65;100.00;62256.63;5094651;28;20203;-72
2022/03/29 07:11:19;;;;;;;29.93;15.37;;;;;;;13.92;100.00;62287.69;5094628;28;20235;-72
2022/03/29 07:13:46;;;;;;;32.53;16.33;;;;;;;14.18;100.00;62316.16;5094896;28;20192;-71
2022/03/29 07:16:15;;;;;;;32.53;14.47;;;;;;;14.14;100.00;62308.75;5094790;28;20249;-71
2022/03/29 07:18:42;;;;;;;32.07;14.57;;;;;;;14.19;100.00;62319.78;5094749;28;20191;-72
2022/03/29 07:21:10;;;;;;;30.77;14.93;;;;;;;13.68;100.00;62259.31;5094444;28;20196;-71
2022/03/29 07:23:37;;;;;;;34.10;14.77;;;;;;;13.82;100.00;62277.47;5094373;28;20192;-71
2022/03/29 07:26:04;;;;;;;37.50;14.60;;;;;;;13.02;100.00;62191.50;5094153;28;20270;-71
2022/03/29 07:28:31;;;;;;;36.17;14.40;;;;;;;14.32;100.00;62328.13;5094202;28;20199;-71
2022/03/29 07:30:58;;;;;;;40.17;15.17;;;;;;;14.80;100.00;62382.31;5094707;28;20231;-72
2022/03/29 07:33:26;;;;;;;31.13;13.73;;;;;;;14.76;100.00;62380.03;5094297;28;20647;-71
2022/03/29 07:35:54;;;;;;;25.17;12.73;;;;;;;14.28;100.00;62326.94;5094307;28;20203;-72
2022/03/29 07:38:21;;;;;;;32.27;14.23;;;;;;;14.40;100.00;62336.75;5094165;28;20191;-71
2022/03/29 07:40:48;;;;;;;24.30;12.73;;;;;;;14.67;100.00;62372.94;5094426;28;20203;-72
2022/03/29 07:43:15;;;;;;;34.20;13.27;;;;;;;15.25;100.00;62427.63;5094298;28;20196;-72
2022/03/29 07:45:42;;;;;;;35.20;12.90;;;;;;;15.95;100.00;62508.16;5093190;28;20280;-71
2022/03/29 07:48:09;;;;;;;23.97;12.60;;;;;;;16.27;100.00;62539.50;5093903;28;20203;-72
2022/03/29 07:50:38;;;;;;;28.90;12.73;;;;;;;16.41;98.04;62554.59;5094217;28;20298;-70
2022/03/29 07:53:06;;;;;;;28.87;13.37;;;;;;;16.45;97.97;62558.38;5094165;28;20227;-72
2022/03/29 07:55:34;;;;;;;31.63;13.13;;;;;;;16.75;97.98;62588.69;5093855;28;20579;-72
2022/03/29 07:58:02;;;;;;;33.67;13.40;;;;;;;17.13;94.30;62631.13;5093994;28;20223;-72
2022/03/29 08:00:33;;;;;;;35.57;13.43;;;;;;;17.49;85.11;62670.50;5093847;28;20202;-73
2022/03/29 08:03:02;;;;;;;26.57;12.57;;;;;;;17.32;82.36;62652.16;5093920;28;20206;-71
2022/03/29 08:05:29;;;;;;;25.87;11.40;;;;;;;16.43;87.16;62553.63;5093503;28;20239;-72
2022/03/29 08:07:58;;;;;;;23.17;11.50;;;;;;;16.46;87.78;62559.44;5093257;28;20673;-71
2022/03/29 08:10:27;;;;;;;30.60;12.17;;;;;;;16.13;89.32;62521.31;5093270;28;20746;-73
2022/03/29 08:12:57;;;;;;;32.83;11.87;;;;;;;15.60;92.04;62465.31;5092924;28;20561;-72
2022/03/29 08:15:24;;;;;;;22.30;11.37;;;;;;;16.25;89.99;62534.25;5093243;28;20200;-73
2022/03/29 08:17:51;;;;;;;23.17;10.97;;;;;;;16.11;87.22;62521.72;5093235;28;20731;-71
2022/03/29 08:20:18;;;;;;;32.50;12.77;;;;;;;16.65;83.83;62577.38;5093107;28;20199;-72
2022/03/29 08:22:46;;;;;;;32.43;11.87;;;;;;;16.95;83.50;62614.84;5093388;28;20195;-73
2022/03/29 08:25:15;;;;;;;26.77;10.53;;;;;;;17.73;81.42;62695.34;5092997;28;20683;-71
2022/03/29 08:27:43;;;;;;;15.97;8.90;;;;;;;17.67;73.72;62689.94;5093080;28;20662;-72
2022/03/29 08:30:11;;;;;;;30.97;10.20;;;;;;;18.05;73.33;62730.38;5093387;28;20231;-72
2022/03/29 08:32:38;;;;;;;16.10;9.10;;;;;;;18.56;69.81;62784.91;5093133;28;20207;-71
2022/03/29 08:35:08;;;;;;;17.60;9.30;;;;;;;18.87;67.80;62818.41;5092519;28;20199;-72
2022/03/29 08:37:36;;;;;;;21.07;9.30;;;;;;;18.67;66.87;62794.22;5093600;28;20200;-73
2022/03/29 08:40:04;;;;;;;13.73;7.77;;;;;;;19.06;64.91;62836.31;5094345;28;20249;-72
2022/03/29 08:42:33;;;;;;;19.67;9.10;;;;;;;19.21;59.89;62857.69;5093058;28;20570;-73
2022/03/29 08:45:00;;;;;;;13.43;7.60;;;;;;;18.83;57.86;62814.06;5092930;28;20580;-73
2022/03/29 08:47:27;;;;;;;19.27;7.93;;;;;;;18.53;58.36;62782.22;5093324;28;20268;-71
2022/03/29 08:49:54;;;;;;;17.23;8.23;;;;;;;17.73;61.62;62693.81;5092764;28;20248;-72
2022/03/29 08:52:23;;;;;;;20.60;8.60;;;;;;;18.34;61.74;62761.16;5092832;28;20207;-71
2022/03/29 08:54:50;;;;;;;18.67;8.10;;;;;;;18.48;61.27;62773.69;5092885;28;20199;-70
2022/03/29 08:57:17;;;;;;;24.03;7.97;;;;;;;18.06;62.55;62730.94;5091689;28;20231;-71
2022/03/29 08:59:46;;;;;;;18.37;8.17;;;;;;;18.25;62.69;62751.44;5092538;28;20290;-71
2022/03/29 09:02:15;;;;;;;21.23;7.70;;;;;;;18.61;61.47;62787.75;5092963;28;20196;-71
2022/03/29 09:04:42;;;;;;;17.83;7.50;;;;;;;18.10;60.70;62732.66;5092039;28;20196;-72
2022/03/29 09:07:11;;;;;;;21.20;8.03;;;;;;;18.55;61.34;62783.84;5092066;28;20228;-71
2022/03/29 09:09:40;;;;;;;17.33;7.73;;;;;;;18.48;60.30;62776.28;5092726;28;20249;-71
2022/03/29 09:12:13;;;;;;;21.90;7.87;;;;;;;18.54;59.85;62780.16;5092296;28;20200;-73
2022/03/29 09:14:55;;;;;;;17.07;7.70;;;;;;;19.19;56.58;62852.94;5092218;28;20217;-73
2022/03/29 09:17:32;;;;;;;19.33;7.53;;;;;;;19.78;55.11;62915.66;5092399;28;20203;-73
2022/03/29 09:19:59;;;;;;;19.83;7.33;;;;;;;20.14;52.90;62954.56;5092239;28;20286;-71
2022/03/29 09:22:42;;;;;;;22.50;7.73;;;;;;;20.61;52.30;63005.41;5092485;28;20200;-71
2022/03/29 09:25:12;;;;;;;26.90;7.50;;;;;;;20.16;49.17;62956.72;5092558;28;20590;-71
2022/03/29 09:27:58;;;;;;;19.27;6.93;;;;;;;19.60;50.18;62896.72;5092455;28;20196;-72
2022/03/29 09:30:28;;;;;;;19.10;7.87;;;;;;;19.93;51.28;62931.84;5092274;28;20622;-71
2022/03/29 09:33:00;;;;;;;27.07;7.40;;;;;;;20.10;50.83;62950.22;5092281;28;20195;-72
2022/03/29 09:35:28;;;;;;;17.30;7.40;;;;;;;19.60;49.35;62893.59;5092795;28;20202;-71
2022/03/29 09:37:55;;;;;;;14.57;7.03;;;;;;;20.05;49.12;62945.38;5092328;28;20192;-73
2022/03/29 09:40:22;;;;;;;17.37;7.17;;;;;;;20.68;47.97;63009.84;5092079;28;20626;-71
2022/03/29 09:43:04;;;;;;;19.03;7.27;;;;;;;20.20;47.73;62959.00;5092051;28;20666;-72
2022/03/29 09:45:48;;;;;;;17.17;7.03;;;;;;;19.62;48.43;62888.53;5091888;28;20237;-72
2022/03/29 09:48:27;;;;;;;17.47;7.00;;;;;;;19.51;49.73;62886.47;5092714;28;20278;-70
2022/03/29 09:50:59;;;;;;;21.10;6.97;;;;;;;19.50;50.71;62887.97;5091879;28;20204;-71
2022/03/29 09:53:37;;;;;;;16.37;6.97;;;;;;;19.28;50.70;62860.09;5091788;28;20248;-73
2022/03/29 09:56:05;;;;;;;11.37;6.20;;;;;;;19.66;50.48;62905.78;5091731;28;20203;-72
2022/03/29 09:58:32;;;;;;;18.17;7.40;;;;;;;20.28;51.15;62969.72;5091750;28;20268;-71
2022/03/29 10:01:02;;;;;;;15.00;6.43;;;;;;;20.97;47.56;63041.19;5091920;28;20195;-72
2022/03/29 10:03:29;;;;;;;11.23;6.43;;;;;;;20.83;46.94;63029.19;5091893;28;20200;-71
2022/03/29 10:06:03;;;;;;;20.27;7.63;;;;;;;19.87;47.43;62925.91;5091935;28;20227;-71
2022/03/29 10:11:21;;;;;;;19.13;7.50;;;;;;;19.62;51.65;62893.19;5095732;28;20199;-71
2022/03/29 10:13:49;;;;;;;16.23;6.97;;;;;;;19.82;49.57;62919.97;5095598;28;20662;-72
2022/03/29 10:16:18;;;;;;;15.77;6.90;;;;;;;19.67;50.85;62906.34;5095576;28;20762;-72
2022/03/29 10:18:46;;;;;;;15.77;6.73;;;;;;;19.96;49.52;62935.09;5095753;28;20195;-72
2022/03/29 10:21:15;;;;;;;20.13;8.20;;;;;;;20.07;47.89;62946.97;5095472;28;20222;-71
2022/03/29 10:23:45;;;;;;;21.33;7.77;;;;;;;20.08;48.51;62948.06;5095588;28;20207;-72
2022/03/29 10:26:17;;;;;;;21.13;7.80;;;;;;;20.24;48.46;62965.38;5095630;28;20227;-72
2022/03/29 10:28:46;;;;;;;16.20;6.80;;;;;;;20.39;48.17;62979.00;5095687;28;20677;-73
2022/03/29 10:31:36;;;;;;;19.23;7.67;;;;;;;21.15;46.50;63062.75;5095715;28;20614;-72
2022/03/29 10:34:18;;;;;;;19.07;7.23;;;;;;;21.14;45.22;63061.66;5095523;28;20206;-72
2022/03/29 10:37:03;;;;;;;18.03;6.97;;;;;;;21.56;46.08;63104.53;5095451;28;20230;-72
2022/03/29 10:39:50;;;;;;;12.17;6.80;;;;;;;22.06;44.59;63161.28;5095827;28;20642;-72
2022/03/29 10:42:42;;;;;;;15.47;5.73;;;;;;;22.16;43.83;63166.38;5095638;28;20199;-72
2022/03/29 10:45:20;;;;;;;20.63;6.57;;;;;;;22.40;42.84;63197.56;5094953;28;20227;-72
2022/03/29 10:47:49;;;;;;;19.47;6.80;;;;;;;21.94;42.88;63148.28;5095236;28;20199;-72
2022/03/29 10:50:17;;;;;;;15.83;6.20;;;;;;;21.93;42.51;63144.09;5095090;28;20192;-72
2022/03/29 10:52:46;;;;;;;15.23;6.37;;;;;;;21.65;43.84;63111.69;5094718;28;20513;-72
2022/03/29 10:55:27;;;;;;;16.57;6.13;;;;;;;21.44;43.40;63099.31;5094863;28;20200;-71
2022/03/29 10:58:06;;;;;;;23.47;6.60;;;;;;;21.25;44.30;63073.59;5095015;28;20670;-72
2022/03/29 11:00:33;;;;;;;16.53;6.90;;;;;;;20.92;44.12;63038.94;5094866;28;20249;-71
2022/03/29 11:03:15;;;;;;;11.97;6.43;;;;;;;20.30;44.74;62971.88;5095852;28;20261;-72
2022/03/29 11:06:06;;;;;;;15.80;6.60;;;;;;;20.46;45.72;62988.63;5095412;28;20259;-71
2022/03/29 11:08:35;;;;;;;20.23;6.03;;;;;;;20.77;45.06;63017.53;5094886;28;20286;-71
2022/03/29 11:11:02;;;;;;;18.03;6.17;;;;;;;21.66;43.73;63117.97;5094752;28;20196;-71
2022/03/29 11:13:33;;;;;;;20.73;6.83;;;;;;;21.91;42.31;63145.06;5095033;28;20223;-72
2022/03/29 11:16:21;;;;;;;15.50;6.43;;;;;;;21.12;41.99;63062.09;5094584;28;20204;-72
2022/03/29 11:18:50;;;;;;;18.13;6.50;;;;;;;21.03;43.81;63053.44;5094411;28;20268;-73
2022/03/29 11:21:38;;;;;;;16.63;6.10;;;;;;;20.39;43.58;62976.44;5093459;28;20623;-71
2022/03/29 11:24:08;;;;;;;20.03;5.90;;;;;;;20.09;43.92;62949.16;5094890;28;20260;-72
2022/03/29 11:26:36;;;;;;;18.20;6.03;;;;;;;19.67;44.57;62901.16;5095253;28;20231;-72
2022/03/29 11:29:06;;;;;;;18.47;6.10;;;;;;;19.42;46.47;62876.75;5094935;28;20225;-71
2022/03/29 11:31:35;;;;;;;23.33;6.10;;;;;;;19.61;46.92;62897.25;5094472;28;20199;-71
2022/03/29 11:34:04;;;;;;;32.60;6.53;;;;;;;19.64;45.87;62897.94;5094215;28;20245;-72
2022/03/29 11:36:32;;;;;;;16.70;5.93;;;;;;;19.61;45.40;62897.25;5094176;28;20323;-71
2022/03/29 11:38:59;;;;;;;16.83;5.33;;;;;;;19.56;45.72;62891.88;5094378;28;20207;-71